sensor_id;sensor_type;location;lat;lon;timestamp;P1;durP1;ratioP1;P2;durP2;ratioP2
53890;SDS011;41337;51.400;-2.342;2022-12-18T00:04:46;25.02;;;12.15;;
53890;SDS011;41337;51.400;-2.342;2022-12-18T00:10:07;24.52;;;11.57;;
53890;SDS011;41337;51.400;-2.342;2022-12-18T00:15:35;30.58;;;12.40;;
53890;SDS011;41337;51.400;-2.342;2022-12-18T00:21:04;28.15;;;13.13;;
53890;SDS011;41337;51.400;-2.342;2022-12-18T00:26:32;23.33;;;11.77;;
53890;SDS011;41337;51.400;-2.342;2022-12-18T00:32:00;29.13;;;13.13;;
53890;SDS011;41337;51.400;-2.342;2022-12-18T00:37:00;24.00;;;11.50;;
53890;SDS011;41337;51.400;-2.342;2022-12-18T00:42:27;26.52;;;13.07;;
53890;SDS011;41337;51.400;-2.342;2022-12-18T00:47:46;25.38;;;10.85;;
53890;SDS011;41337;51.400;-2.342;2022-12-18T00:53:13;25.98;;;11.13;;
53890;SDS011;41337;51.400;-2.342;2022-12-18T00:58:35;20.17;;;10.02;;
53890;SDS011;41337;51.400;-2.342;2022-12-18T01:04:02;24.95;;;10.05;;
53890;SDS011;41337;51.400;-2.342;2022-12-18T01:09:29;26.85;;;12.77;;
53890;SDS011;41337;51.400;-2.342;2022-12-18T01:14:50;23.83;;;11.82;;
53890;SDS011;41337;51.400;-2.342;2022-12-18T01:19:54;33.03;;;13.77;;
53890;SDS011;41337;51.400;-2.342;2022-12-18T01:24:55;39.50;;;16.23;;
53890;SDS011;41337;51.400;-2.342;2022-12-18T01:30:16;38.33;;;17.33;;
53890;SDS011;41337;51.400;-2.342;2022-12-18T01:35:43;34.53;;;14.48;;
53890;SDS011;41337;51.400;-2.342;2022-12-18T01:40:44;31.75;;;13.63;;
53890;SDS011;41337;51.400;-2.342;2022-12-18T01:46:05;32.55;;;12.25;;
53890;SDS011;41337;51.400;-2.342;2022-12-18T01:51:06;26.83;;;12.27;;
53890;SDS011;41337;51.400;-2.342;2022-12-18T01:56:32;21.25;;;10.35;;
53890;SDS011;41337;51.400;-2.342;2022-12-18T02:01:32;27.38;;;11.00;;
53890;SDS011;41337;51.400;-2.342;2022-12-18T02:07:03;26.75;;;11.40;;
53890;SDS011;41337;51.400;-2.342;2022-12-18T02:13:24;30.15;;;11.02;;
53890;SDS011;41337;51.400;-2.342;2022-12-18T02:19:00;23.52;;;11.70;;
53890;SDS011;41337;51.400;-2.342;2022-12-18T02:29:49;32.42;;;13.32;;
53890;SDS011;41337;51.400;-2.342;2022-12-18T02:35:15;30.25;;;13.45;;
53890;SDS011;41337;51.400;-2.342;2022-12-18T02:40:21;29.80;;;12.10;;
53890;SDS011;41337;51.400;-2.342;2022-12-18T02:45:48;32.55;;;13.07;;
53890;SDS011;41337;51.400;-2.342;2022-12-18T02:56:37;27.88;;;11.85;;
53890;SDS011;41337;51.400;-2.342;2022-12-18T03:01:51;26.25;;;12.30;;
53890;SDS011;41337;51.400;-2.342;2022-12-18T03:06:59;32.63;;;12.25;;
53890;SDS011;41337;51.400;-2.342;2022-12-18T03:12:20;29.02;;;11.40;;
53890;SDS011;41337;51.400;-2.342;2022-12-18T03:18:04;27.58;;;11.88;;
53890;SDS011;41337;51.400;-2.342;2022-12-18T03:23:43;30.63;;;13.00;;
53890;SDS011;41337;51.400;-2.342;2022-12-18T03:28:51;31.65;;;13.15;;
53890;SDS011;41337;51.400;-2.342;2022-12-18T03:34:26;32.20;;;12.93;;
53890;SDS011;41337;51.400;-2.342;2022-12-18T03:39:35;35.10;;;13.45;;
53890;SDS011;41337;51.400;-2.342;2022-12-18T03:51:07;37.22;;;14.23;;
53890;SDS011;41337;51.400;-2.342;2022-12-18T03:56:26;31.92;;;14.32;;
53890;SDS011;41337;51.400;-2.342;2022-12-18T04:01:53;35.05;;;14.43;;
53890;SDS011;41337;51.400;-2.342;2022-12-18T04:07:24;38.88;;;15.32;;
53890;SDS011;41337;51.400;-2.342;2022-12-18T04:12:25;39.42;;;15.85;;
53890;SDS011;41337;51.400;-2.342;2022-12-18T04:17:32;36.80;;;15.70;;
53890;SDS011;41337;51.400;-2.342;2022-12-18T04:22:33;37.05;;;15.43;;
53890;SDS011;41337;51.400;-2.342;2022-12-18T04:27:54;44.90;;;16.60;;
53890;SDS011;41337;51.400;-2.342;2022-12-18T04:32:54;45.97;;;17.08;;
53890;SDS011;41337;51.400;-2.342;2022-12-18T04:37:55;49.63;;;18.13;;
53890;SDS011;41337;51.400;-2.342;2022-12-18T04:43:16;44.55;;;17.27;;
53890;SDS011;41337;51.400;-2.342;2022-12-18T04:48:41;48.75;;;17.38;;
53890;SDS011;41337;51.400;-2.342;2022-12-18T04:53:41;44.13;;;18.05;;
53890;SDS011;41337;51.400;-2.342;2022-12-18T04:58:43;44.17;;;17.05;;
53890;SDS011;41337;51.400;-2.342;2022-12-18T05:04:10;40.03;;;16.60;;
53890;SDS011;41337;51.400;-2.342;2022-12-18T05:09:11;48.30;;;17.40;;
53890;SDS011;41337;51.400;-2.342;2022-12-18T05:14:38;40.40;;;16.88;;
53890;SDS011;41337;51.400;-2.342;2022-12-18T05:20:07;41.65;;;17.65;;
53890;SDS011;41337;51.400;-2.342;2022-12-18T05:25:29;42.88;;;17.58;;
53890;SDS011;41337;51.400;-2.342;2022-12-18T05:30:54;43.67;;;18.33;;
53890;SDS011;41337;51.400;-2.342;2022-12-18T05:36:16;46.83;;;17.88;;
53890;SDS011;41337;51.400;-2.342;2022-12-18T05:41:20;45.03;;;17.63;;
53890;SDS011;41337;51.400;-2.342;2022-12-18T05:46:21;42.95;;;17.50;;
53890;SDS011;41337;51.400;-2.342;2022-12-18T05:51:42;43.80;;;16.83;;
53890;SDS011;41337;51.400;-2.342;2022-12-18T05:56:43;43.22;;;17.63;;
53890;SDS011;41337;51.400;-2.342;2022-12-18T06:01:44;43.45;;;16.92;;
53890;SDS011;41337;51.400;-2.342;2022-12-18T06:07:05;50.08;;;17.58;;
53890;SDS011;41337;51.400;-2.342;2022-12-18T06:12:06;36.38;;;16.42;;
53890;SDS011;41337;51.400;-2.342;2022-12-18T06:17:31;41.38;;;16.23;;
53890;SDS011;41337;51.400;-2.342;2022-12-18T06:22:32;41.30;;;16.42;;
53890;SDS011;41337;51.400;-2.342;2022-12-18T06:27:59;39.65;;;16.02;;
53890;SDS011;41337;51.400;-2.342;2022-12-18T06:33:29;40.88;;;17.35;;
53890;SDS011;41337;51.400;-2.342;2022-12-18T06:38:50;38.70;;;16.35;;
53890;SDS011;41337;51.400;-2.342;2022-12-18T06:43:54;36.42;;;16.25;;
53890;SDS011;41337;51.400;-2.342;2022-12-18T06:49:18;48.28;;;16.15;;
53890;SDS011;41337;51.400;-2.342;2022-12-18T06:54:42;39.33;;;16.02;;
53890;SDS011;41337;51.400;-2.342;2022-12-18T07:00:03;36.20;;;14.80;;
53890;SDS011;41337;51.400;-2.342;2022-12-18T07:05:09;38.22;;;14.93;;
53890;SDS011;41337;51.400;-2.342;2022-12-18T07:10:10;34.80;;;15.35;;
53890;SDS011;41337;51.400;-2.342;2022-12-18T07:15:31;37.60;;;15.50;;
53890;SDS011;41337;51.400;-2.342;2022-12-18T07:20:32;33.08;;;13.50;;
53890;SDS011;41337;51.400;-2.342;2022-12-18T07:25:38;32.67;;;13.65;;
53890;SDS011;41337;51.400;-2.342;2022-12-18T07:31:04;32.70;;;14.77;;
53890;SDS011;41337;51.400;-2.342;2022-12-18T07:36:10;33.42;;;14.15;;
53890;SDS011;41337;51.400;-2.342;2022-12-18T07:41:12;32.30;;;13.07;;
53890;SDS011;41337;51.400;-2.342;2022-12-18T07:46:34;35.05;;;14.40;;
53890;SDS011;41337;51.400;-2.342;2022-12-18T07:51:58;30.90;;;13.20;;
53890;SDS011;41337;51.400;-2.342;2022-12-18T07:56:59;33.53;;;12.60;;
53890;SDS011;41337;51.400;-2.342;2022-12-18T08:02:00;32.95;;;13.15;;
53890;SDS011;41337;51.400;-2.342;2022-12-18T08:07:45;32.30;;;12.02;;
53890;SDS011;41337;51.400;-2.342;2022-12-18T08:13:12;25.50;;;12.50;;
53890;SDS011;41337;51.400;-2.342;2022-12-18T08:18:34;29.63;;;12.05;;
53890;SDS011;41337;51.400;-2.342;2022-12-18T08:23:59;25.45;;;11.82;;
53890;SDS011;41337;51.400;-2.342;2022-12-18T08:29:01;24.83;;;11.98;;
53890;SDS011;41337;51.400;-2.342;2022-12-18T08:34:29;30.42;;;11.98;;
53890;SDS011;41337;51.400;-2.342;2022-12-18T08:40:03;32.72;;;13.77;;
53890;SDS011;41337;51.400;-2.342;2022-12-18T08:45:33;35.67;;;13.38;;
53890;SDS011;41337;51.400;-2.342;2022-12-18T08:50:58;33.63;;;12.95;;
53890;SDS011;41337;51.400;-2.342;2022-12-18T08:55:59;36.08;;;15.07;;
53890;SDS011;41337;51.400;-2.342;2022-12-18T09:01:01;43.08;;;14.23;;
53890;SDS011;41337;51.400;-2.342;2022-12-18T09:06:26;37.30;;;14.70;;
53890;SDS011;41337;51.400;-2.342;2022-12-18T09:11:27;35.67;;;15.05;;
53890;SDS011;41337;51.400;-2.342;2022-12-18T09:16:55;37.55;;;14.65;;
53890;SDS011;41337;51.400;-2.342;2022-12-18T09:21:56;37.28;;;12.82;;
53890;SDS011;41337;51.400;-2.342;2022-12-18T09:26:57;41.53;;;15.23;;
53890;SDS011;41337;51.400;-2.342;2022-12-18T09:31:58;41.83;;;16.02;;
53890;SDS011;41337;51.400;-2.342;2022-12-18T09:36:59;39.22;;;15.30;;
53890;SDS011;41337;51.400;-2.342;2022-12-18T09:42:26;34.67;;;15.30;;
53890;SDS011;41337;51.400;-2.342;2022-12-18T09:47:36;47.05;;;16.92;;
53890;SDS011;41337;51.400;-2.342;2022-12-18T09:52:49;38.15;;;16.88;;
53890;SDS011;41337;51.400;-2.342;2022-12-18T10:13:53;42.53;;;17.05;;
53890;SDS011;41337;51.400;-2.342;2022-12-18T10:19:33;39.33;;;16.70;;
53890;SDS011;41337;51.400;-2.342;2022-12-18T10:25:22;42.92;;;17.98;;
53890;SDS011;41337;51.400;-2.342;2022-12-18T10:30:30;50.80;;;17.60;;
53890;SDS011;41337;51.400;-2.342;2022-12-18T10:35:31;43.03;;;18.08;;
53890;SDS011;41337;51.400;-2.342;2022-12-18T10:46:19;47.50;;;18.98;;
53890;SDS011;41337;51.400;-2.342;2022-12-18T10:51:41;47.40;;;19.75;;
53890;SDS011;41337;51.400;-2.342;2022-12-18T10:56:48;43.92;;;19.02;;
53890;SDS011;41337;51.400;-2.342;2022-12-18T11:02:24;50.42;;;19.63;;
53890;SDS011;41337;51.400;-2.342;2022-12-18T11:07:49;43.42;;;18.13;;
53890;SDS011;41337;51.400;-2.342;2022-12-18T11:13:21;41.33;;;18.42;;
53890;SDS011;41337;51.400;-2.342;2022-12-18T11:18:30;44.15;;;19.65;;
53890;SDS011;41337;51.400;-2.342;2022-12-18T11:23:52;46.60;;;20.15;;
53890;SDS011;41337;51.400;-2.342;2022-12-18T11:30:22;49.55;;;20.45;;
53890;SDS011;41337;51.400;-2.342;2022-12-18T11:35:35;56.78;;;21.55;;
53890;SDS011;41337;51.400;-2.342;2022-12-18T11:40:58;51.55;;;20.25;;
53890;SDS011;41337;51.400;-2.342;2022-12-18T11:46:07;58.03;;;21.90;;
53890;SDS011;41337;51.400;-2.342;2022-12-18T11:51:28;52.25;;;20.85;;
53890;SDS011;41337;51.400;-2.342;2022-12-18T12:03:04;58.05;;;21.70;;
53890;SDS011;41337;51.400;-2.342;2022-12-18T12:37:19;37.35;;;17.10;;
53890;SDS011;41337;51.400;-2.342;2022-12-18T12:43:16;39.60;;;17.73;;
53890;SDS011;41337;51.400;-2.342;2022-12-18T12:53:50;35.38;;;15.55;;
53890;SDS011;41337;51.400;-2.342;2022-12-18T13:04:35;27.20;;;13.75;;
53890;SDS011;41337;51.400;-2.342;2022-12-18T13:15:33;33.00;;;13.68;;
53890;SDS011;41337;51.400;-2.342;2022-12-18T13:21:13;24.87;;;12.10;;
53890;SDS011;41337;51.400;-2.342;2022-12-18T13:26:43;22.30;;;11.05;;
53890;SDS011;41337;51.400;-2.342;2022-12-18T13:42:36;10.68;;;6.72;;
53890;SDS011;41337;51.400;-2.342;2022-12-18T13:48:20;10.63;;;6.88;;
53890;SDS011;41337;51.400;-2.342;2022-12-18T13:53:56;7.55;;;5.85;;
53890;SDS011;41337;51.400;-2.342;2022-12-18T13:59:40;13.25;;;5.72;;
53890;SDS011;41337;51.400;-2.342;2022-12-18T14:04:44;11.50;;;5.72;;
53890;SDS011;41337;51.400;-2.342;2022-12-18T14:09:49;7.17;;;5.40;;
53890;SDS011;41337;51.400;-2.342;2022-12-18T14:20:47;4.80;;;4.20;;
53890;SDS011;41337;51.400;-2.342;2022-12-18T14:26:26;5.90;;;3.92;;
53890;SDS011;41337;51.400;-2.342;2022-12-18T14:31:31;5.30;;;4.55;;
53890;SDS011;41337;51.400;-2.342;2022-12-18T14:42:35;3.42;;;1.80;;
53890;SDS011;41337;51.400;-2.342;2022-12-18T14:47:37;3.80;;;2.08;;
53890;SDS011;41337;51.400;-2.342;2022-12-18T14:52:38;1.70;;;1.50;;
53890;SDS011;41337;51.400;-2.342;2022-12-18T14:57:39;1.75;;;1.45;;
53890;SDS011;41337;51.400;-2.342;2022-12-18T15:02:47;1.30;;;1.20;;
53890;SDS011;41337;51.400;-2.342;2022-12-18T15:08:30;2.97;;;1.50;;
53890;SDS011;41337;51.400;-2.342;2022-12-18T15:13:57;3.72;;;1.30;;
53890;SDS011;41337;51.400;-2.342;2022-12-18T15:19:44;4.83;;;1.30;;
53890;SDS011;41337;51.400;-2.342;2022-12-18T15:25:31;2.45;;;1.40;;
53890;SDS011;41337;51.400;-2.342;2022-12-18T15:30:36;3.05;;;1.40;;
53890;SDS011;41337;51.400;-2.342;2022-12-18T15:36:01;1.58;;;1.30;;
53890;SDS011;41337;51.400;-2.342;2022-12-18T15:41:21;2.17;;;1.38;;
53890;SDS011;41337;51.400;-2.342;2022-12-18T15:52:15;37.22;;;21.20;;
53890;SDS011;41337;51.400;-2.342;2022-12-18T15:57:49;46.95;;;23.38;;
53890;SDS011;41337;51.400;-2.342;2022-12-18T16:02:53;126.53;;;60.60;;
53890;SDS011;41337;51.400;-2.342;2022-12-18T16:07:53;23.48;;;16.40;;
53890;SDS011;41337;51.400;-2.342;2022-12-18T16:12:54;7.40;;;4.53;;
53890;SDS011;41337;51.400;-2.342;2022-12-18T16:18:15;4.63;;;3.63;;
53890;SDS011;41337;51.400;-2.342;2022-12-18T16:23:19;4.63;;;2.63;;
53890;SDS011;41337;51.400;-2.342;2022-12-18T16:28:40;10.63;;;8.90;;
53890;SDS011;41337;51.400;-2.342;2022-12-18T16:34:20;18.15;;;10.63;;
53890;SDS011;41337;51.400;-2.342;2022-12-18T16:39:45;17.67;;;11.52;;
53890;SDS011;41337;51.400;-2.342;2022-12-18T16:44:46;59.67;;;38.10;;
53890;SDS011;41337;51.400;-2.342;2022-12-18T16:49:54;9.45;;;5.43;;
53890;SDS011;41337;51.400;-2.342;2022-12-18T16:54:55;38.30;;;25.77;;
53890;SDS011;41337;51.400;-2.342;2022-12-18T16:59:56;5.47;;;4.93;;
53890;SDS011;41337;51.400;-2.342;2022-12-18T17:05:17;3.67;;;3.38;;
53890;SDS011;41337;51.400;-2.342;2022-12-18T17:10:23;8.00;;;6.35;;
53890;SDS011;41337;51.400;-2.342;2022-12-18T17:15:24;15.63;;;8.38;;
53890;SDS011;41337;51.400;-2.342;2022-12-18T17:20:51;5.35;;;3.63;;
53890;SDS011;41337;51.400;-2.342;2022-12-18T17:26:12;4.72;;;2.40;;
53890;SDS011;41337;51.400;-2.342;2022-12-18T17:31:20;20.45;;;10.52;;
53890;SDS011;41337;51.400;-2.342;2022-12-18T17:36:22;19.35;;;11.48;;
53890;SDS011;41337;51.400;-2.342;2022-12-18T17:42:06;5.32;;;4.22;;
53890;SDS011;41337;51.400;-2.342;2022-12-18T17:47:25;9.30;;;5.00;;
53890;SDS011;41337;51.400;-2.342;2022-12-18T17:53:01;7.95;;;6.63;;
53890;SDS011;41337;51.400;-2.342;2022-12-18T17:58:22;9.30;;;5.95;;
53890;SDS011;41337;51.400;-2.342;2022-12-18T18:03:56;6.40;;;2.60;;
53890;SDS011;41337;51.400;-2.342;2022-12-18T18:09:19;10.43;;;6.05;;
53890;SDS011;41337;51.400;-2.342;2022-12-18T18:14:49;14.50;;;9.45;;
53890;SDS011;41337;51.400;-2.342;2022-12-18T18:19:50;5.45;;;3.25;;
53890;SDS011;41337;51.400;-2.342;2022-12-18T18:25:20;5.15;;;3.05;;
53890;SDS011;41337;51.400;-2.342;2022-12-18T18:30:20;7.68;;;3.80;;
53890;SDS011;41337;51.400;-2.342;2022-12-18T18:35:21;8.35;;;5.00;;
53890;SDS011;41337;51.400;-2.342;2022-12-18T18:40:46;7.30;;;2.88;;
53890;SDS011;41337;51.400;-2.342;2022-12-18T18:45:47;4.45;;;3.30;;
53890;SDS011;41337;51.400;-2.342;2022-12-18T18:51:04;5.60;;;2.83;;
53890;SDS011;41337;51.400;-2.342;2022-12-18T18:56:31;3.45;;;3.03;;
53890;SDS011;41337;51.400;-2.342;2022-12-18T19:02:01;4.50;;;1.60;;
53890;SDS011;41337;51.400;-2.342;2022-12-18T19:07:28;5.40;;;1.88;;
53890;SDS011;41337;51.400;-2.342;2022-12-18T19:12:28;3.65;;;2.40;;
53890;SDS011;41337;51.400;-2.342;2022-12-18T19:18:14;6.55;;;1.85;;
53890;SDS011;41337;51.400;-2.342;2022-12-18T19:23:15;2.28;;;2.03;;
53890;SDS011;41337;51.400;-2.342;2022-12-18T19:28:36;2.53;;;1.35;;
53890;SDS011;41337;51.400;-2.342;2022-12-18T19:34:00;7.43;;;1.50;;
53890;SDS011;41337;51.400;-2.342;2022-12-18T19:39:01;1.73;;;0.90;;
53890;SDS011;41337;51.400;-2.342;2022-12-18T19:44:29;2.60;;;1.67;;
53890;SDS011;41337;51.400;-2.342;2022-12-18T19:49:30;4.63;;;4.22;;
53890;SDS011;41337;51.400;-2.342;2022-12-18T19:55:07;3.97;;;1.00;;
53890;SDS011;41337;51.400;-2.342;2022-12-18T20:00:08;4.57;;;2.20;;
53890;SDS011;41337;51.400;-2.342;2022-12-18T20:05:30;3.95;;;1.25;;
53890;SDS011;41337;51.400;-2.342;2022-12-18T20:10:55;3.33;;;1.45;;
53890;SDS011;41337;51.400;-2.342;2022-12-18T20:16:31;5.50;;;1.17;;
53890;SDS011;41337;51.400;-2.342;2022-12-18T20:21:32;3.00;;;2.22;;
53890;SDS011;41337;51.400;-2.342;2022-12-18T20:26:53;4.38;;;2.15;;
53890;SDS011;41337;51.400;-2.342;2022-12-18T20:31:56;4.25;;;1.95;;
53890;SDS011;41337;51.400;-2.342;2022-12-18T20:36:57;1.08;;;0.98;;
53890;SDS011;41337;51.400;-2.342;2022-12-18T20:42:18;6.57;;;4.32;;
53890;SDS011;41337;51.400;-2.342;2022-12-18T20:47:48;0.93;;;0.70;;
53890;SDS011;41337;51.400;-2.342;2022-12-18T20:53:11;3.60;;;2.63;;
53890;SDS011;41337;51.400;-2.342;2022-12-18T20:58:32;0.65;;;0.57;;
53890;SDS011;41337;51.400;-2.342;2022-12-18T21:03:59;1.10;;;0.52;;
53890;SDS011;41337;51.400;-2.342;2022-12-18T21:09:00;1.90;;;1.35;;
53890;SDS011;41337;51.400;-2.342;2022-12-18T21:14:01;2.28;;;0.80;;
53890;SDS011;41337;51.400;-2.342;2022-12-18T21:19:36;1.15;;;0.70;;
53890;SDS011;41337;51.400;-2.342;2022-12-18T21:24:37;1.90;;;0.50;;
53890;SDS011;41337;51.400;-2.342;2022-12-18T21:29:58;3.05;;;0.90;;
53890;SDS011;41337;51.400;-2.342;2022-12-18T21:35:24;2.25;;;0.75;;
53890;SDS011;41337;51.400;-2.342;2022-12-18T21:40:48;7.85;;;1.40;;
53890;SDS011;41337;51.400;-2.342;2022-12-18T21:46:09;3.53;;;1.60;;
53890;SDS011;41337;51.400;-2.342;2022-12-18T21:51:10;4.05;;;1.08;;
53890;SDS011;41337;51.400;-2.342;2022-12-18T21:56:10;2.70;;;1.05;;
53890;SDS011;41337;51.400;-2.342;2022-12-18T22:01:31;4.53;;;1.10;;
53890;SDS011;41337;51.400;-2.342;2022-12-18T22:06:35;2.70;;;0.93;;
53890;SDS011;41337;51.400;-2.342;2022-12-18T22:11:57;6.75;;;0.90;;
53890;SDS011;41337;51.400;-2.342;2022-12-18T22:16:58;4.22;;;0.75;;
53890;SDS011;41337;51.400;-2.342;2022-12-18T22:22:22;4.95;;;1.13;;
53890;SDS011;41337;51.400;-2.342;2022-12-18T22:27:22;4.63;;;0.98;;
53890;SDS011;41337;51.400;-2.342;2022-12-18T22:32:23;2.63;;;1.00;;
53890;SDS011;41337;51.400;-2.342;2022-12-18T22:37:44;3.90;;;1.27;;
53890;SDS011;41337;51.400;-2.342;2022-12-18T22:42:44;2.80;;;0.80;;
53890;SDS011;41337;51.400;-2.342;2022-12-18T22:48:05;2.95;;;0.85;;
53890;SDS011;41337;51.400;-2.342;2022-12-18T22:53:09;6.50;;;1.55;;
53890;SDS011;41337;51.400;-2.342;2022-12-18T22:58:10;6.70;;;1.10;;
53890;SDS011;41337;51.400;-2.342;2022-12-18T23:03:11;4.80;;;1.10;;
53890;SDS011;41337;51.400;-2.342;2022-12-18T23:08:50;2.90;;;0.60;;
53890;SDS011;41337;51.400;-2.342;2022-12-18T23:14:17;2.03;;;0.63;;
53890;SDS011;41337;51.400;-2.342;2022-12-18T23:19:18;2.67;;;0.70;;
53890;SDS011;41337;51.400;-2.342;2022-12-18T23:24:42;1.88;;;0.80;;
53890;SDS011;41337;51.400;-2.342;2022-12-18T23:29:43;1.50;;;0.45;;
53890;SDS011;41337;51.400;-2.342;2022-12-18T23:34:44;1.55;;;0.60;;
53890;SDS011;41337;51.400;-2.342;2022-12-18T23:39:45;1.70;;;0.57;;
53890;SDS011;41337;51.400;-2.342;2022-12-18T23:44:46;1.35;;;0.50;;
53890;SDS011;41337;51.400;-2.342;2022-12-18T23:50:22;1.90;;;0.50;;
53890;SDS011;41337;51.400;-2.342;2022-12-18T23:55:22;0.75;;;0.50;;
